sensor_id;sensor_type;location;lat;lon;timestamp;pressure;altitude;pressure_sealevel;temperature
22322;BMP180;11328;53.928;18.522;2022-07-01T00:01:46;100180.00;;;23.60
22322;BMP180;11328;53.928;18.522;2022-07-01T00:04:14;100183.00;;;23.40
22322;BMP180;11328;53.928;18.522;2022-07-01T00:06:41;100170.00;;;23.20
22322;BMP180;11328;53.928;18.522;2022-07-01T00:09:08;100186.00;;;23.10
22322;BMP180;11328;53.928;18.522;2022-07-01T00:11:36;100200.00;;;23.10
22322;BMP180;11328;53.928;18.522;2022-07-01T00:14:03;100196.00;;;23.20
22322;BMP180;11328;53.928;18.522;2022-07-01T00:16:30;100197.00;;;23.00
22322;BMP180;11328;53.928;18.522;2022-07-01T00:18:57;100180.00;;;22.80
22322;BMP180;11328;53.928;18.522;2022-07-01T00:21:25;100199.00;;;22.80
22322;BMP180;11328;53.928;18.522;2022-07-01T00:23:52;100196.00;;;22.80
22322;BMP180;11328;53.928;18.522;2022-07-01T00:26:19;100213.00;;;22.80
22322;BMP180;11328;53.928;18.522;2022-07-01T00:28:46;100196.00;;;22.90
22322;BMP180;11328;53.928;18.522;2022-07-01T00:31:13;100188.00;;;22.80
22322;BMP180;11328;53.928;18.522;2022-07-01T00:33:40;100188.00;;;22.70
22322;BMP180;11328;53.928;18.522;2022-07-01T00:36:07;100185.00;;;22.60
22322;BMP180;11328;53.928;18.522;2022-07-01T00:38:34;100194.00;;;22.50
22322;BMP180;11328;53.928;18.522;2022-07-01T00:41:02;100202.00;;;22.50
22322;BMP180;11328;53.928;18.522;2022-07-01T00:43:35;100217.00;;;22.50
22322;BMP180;11328;53.928;18.522;2022-07-01T00:46:24;100231.00;;;22.50
22322;BMP180;11328;53.928;18.522;2022-07-01T00:48:58;100233.00;;;22.50
22322;BMP180;11328;53.928;18.522;2022-07-01T00:51:25;100220.00;;;22.60
22322;BMP180;11328;53.928;18.522;2022-07-01T00:53:52;100235.00;;;22.60
22322;BMP180;11328;53.928;18.522;2022-07-01T00:56:20;100240.00;;;22.50
22322;BMP180;11328;53.928;18.522;2022-07-01T00:58:47;100233.00;;;22.50
22322;BMP180;11328;53.928;18.522;2022-07-01T01:01:14;100235.00;;;22.60
22322;BMP180;11328;53.928;18.522;2022-07-01T01:03:41;100255.00;;;22.70
22322;BMP180;11328;53.928;18.522;2022-07-01T01:06:09;100250.00;;;22.70
22322;BMP180;11328;53.928;18.522;2022-07-01T01:08:37;100233.00;;;22.70
22322;BMP180;11328;53.928;18.522;2022-07-01T01:11:05;100228.00;;;22.70
22322;BMP180;11328;53.928;18.522;2022-07-01T01:13:33;100229.00;;;22.70
22322;BMP180;11328;53.928;18.522;2022-07-01T01:16:00;100223.00;;;22.80
22322;BMP180;11328;53.928;18.522;2022-07-01T01:18:27;100204.00;;;22.90
22322;BMP180;11328;53.928;18.522;2022-07-01T01:20:55;100210.00;;;22.90
22322;BMP180;11328;53.928;18.522;2022-07-01T01:23:22;100200.00;;;22.90
22322;BMP180;11328;53.928;18.522;2022-07-01T01:25:49;100193.00;;;23.00
22322;BMP180;11328;53.928;18.522;2022-07-01T01:28:16;100191.00;;;23.10
22322;BMP180;11328;53.928;18.522;2022-07-01T01:30:43;100198.00;;;23.00
22322;BMP180;11328;53.928;18.522;2022-07-01T01:33:10;100191.00;;;22.80
22322;BMP180;11328;53.928;18.522;2022-07-01T01:35:38;100189.00;;;22.80
22322;BMP180;11328;53.928;18.522;2022-07-01T01:38:06;100189.00;;;22.70
22322;BMP180;11328;53.928;18.522;2022-07-01T01:40:33;100206.00;;;22.70
22322;BMP180;11328;53.928;18.522;2022-07-01T01:43:00;100198.00;;;22.70
22322;BMP180;11328;53.928;18.522;2022-07-01T01:45:29;100200.00;;;22.70
22322;BMP180;11328;53.928;18.522;2022-07-01T01:47:56;100196.00;;;22.70
22322;BMP180;11328;53.928;18.522;2022-07-01T01:50:23;100200.00;;;22.80
22322;BMP180;11328;53.928;18.522;2022-07-01T01:52:50;100202.00;;;22.70
22322;BMP180;11328;53.928;18.522;2022-07-01T01:55:17;100198.00;;;22.80
22322;BMP180;11328;53.928;18.522;2022-07-01T01:57:44;100197.00;;;22.80
22322;BMP180;11328;53.928;18.522;2022-07-01T02:00:12;100201.00;;;22.60
22322;BMP180;11328;53.928;18.522;2022-07-01T02:02:39;100182.00;;;22.60
22322;BMP180;11328;53.928;18.522;2022-07-01T02:05:11;100204.00;;;22.80
22322;BMP180;11328;53.928;18.522;2022-07-01T02:07:39;100196.00;;;22.80
22322;BMP180;11328;53.928;18.522;2022-07-01T02:10:07;100185.00;;;22.70
22322;BMP180;11328;53.928;18.522;2022-07-01T02:12:34;100196.00;;;22.60
22322;BMP180;11328;53.928;18.522;2022-07-01T02:15:02;100194.00;;;22.60
22322;BMP180;11328;53.928;18.522;2022-07-01T02:17:28;100193.00;;;22.50
22322;BMP180;11328;53.928;18.522;2022-07-01T02:19:55;100179.00;;;22.50
22322;BMP180;11328;53.928;18.522;2022-07-01T02:22:22;100181.00;;;22.60
22322;BMP180;11328;53.928;18.522;2022-07-01T02:24:49;100163.00;;;22.60
22322;BMP180;11328;53.928;18.522;2022-07-01T02:27:16;100190.00;;;22.60
22322;BMP180;11328;53.928;18.522;2022-07-01T02:29:43;100185.00;;;22.70
22322;BMP180;11328;53.928;18.522;2022-07-01T02:32:13;100184.00;;;22.90
22322;BMP180;11328;53.928;18.522;2022-07-01T02:34:40;100183.00;;;22.90
22322;BMP180;11328;53.928;18.522;2022-07-01T02:37:08;100168.00;;;22.90
22322;BMP180;11328;53.928;18.522;2022-07-01T02:39:35;100173.00;;;23.00
22322;BMP180;11328;53.928;18.522;2022-07-01T02:42:02;100149.00;;;22.90
22322;BMP180;11328;53.928;18.522;2022-07-01T02:44:48;100171.00;;;22.90
22322;BMP180;11328;53.928;18.522;2022-07-01T02:47:15;100174.00;;;22.90
22322;BMP180;11328;53.928;18.522;2022-07-01T02:49:42;100178.00;;;22.90
22322;BMP180;11328;53.928;18.522;2022-07-01T02:52:09;100174.00;;;22.90
22322;BMP180;11328;53.928;18.522;2022-07-01T02:54:36;100177.00;;;22.70
22322;BMP180;11328;53.928;18.522;2022-07-01T02:57:04;100176.00;;;22.60
22322;BMP180;11328;53.928;18.522;2022-07-01T02:59:32;100179.00;;;22.50
22322;BMP180;11328;53.928;18.522;2022-07-01T03:01:59;100185.00;;;22.60
22322;BMP180;11328;53.928;18.522;2022-07-01T03:04:26;100178.00;;;22.70
22322;BMP180;11328;53.928;18.522;2022-07-01T03:06:53;100172.00;;;22.80
22322;BMP180;11328;53.928;18.522;2022-07-01T03:09:22;100170.00;;;22.70
22322;BMP180;11328;53.928;18.522;2022-07-01T03:11:49;100169.00;;;22.60
22322;BMP180;11328;53.928;18.522;2022-07-01T03:14:16;100178.00;;;22.60
22322;BMP180;11328;53.928;18.522;2022-07-01T03:16:43;100195.00;;;22.50
22322;BMP180;11328;53.928;18.522;2022-07-01T03:19:10;100204.00;;;22.60
22322;BMP180;11328;53.928;18.522;2022-07-01T03:21:37;100199.00;;;22.50
22322;BMP180;11328;53.928;18.522;2022-07-01T03:24:04;100225.00;;;22.60
22322;BMP180;11328;53.928;18.522;2022-07-01T03:26:31;100208.00;;;22.60
22322;BMP180;11328;53.928;18.522;2022-07-01T03:29:04;100218.00;;;22.50
22322;BMP180;11328;53.928;18.522;2022-07-01T03:31:34;100209.00;;;22.40
22322;BMP180;11328;53.928;18.522;2022-07-01T03:34:01;100210.00;;;22.40
22322;BMP180;11328;53.928;18.522;2022-07-01T03:36:28;100202.00;;;22.40
22322;BMP180;11328;53.928;18.522;2022-07-01T03:38:55;100206.00;;;22.60
22322;BMP180;11328;53.928;18.522;2022-07-01T03:41:22;100152.00;;;22.70
22322;BMP180;11328;53.928;18.522;2022-07-01T03:43:49;100200.00;;;22.70
22322;BMP180;11328;53.928;18.522;2022-07-01T03:46:15;100206.00;;;22.50
22322;BMP180;11328;53.928;18.522;2022-07-01T03:48:42;100200.00;;;22.40
22322;BMP180;11328;53.928;18.522;2022-07-01T03:51:09;100198.00;;;22.50
22322;BMP180;11328;53.928;18.522;2022-07-01T03:53:36;100186.00;;;22.50
22322;BMP180;11328;53.928;18.522;2022-07-01T03:56:22;100183.00;;;22.40
22322;BMP180;11328;53.928;18.522;2022-07-01T03:58:49;100193.00;;;22.20
22322;BMP180;11328;53.928;18.522;2022-07-01T04:01:16;100177.00;;;22.20
22322;BMP180;11328;53.928;18.522;2022-07-01T04:03:42;100174.00;;;22.30
22322;BMP180;11328;53.928;18.522;2022-07-01T04:06:10;100161.00;;;22.30
22322;BMP180;11328;53.928;18.522;2022-07-01T04:08:37;100167.00;;;22.40
22322;BMP180;11328;53.928;18.522;2022-07-01T04:11:04;100148.00;;;22.40
22322;BMP180;11328;53.928;18.522;2022-07-01T04:13:36;100164.00;;;22.50
22322;BMP180;11328;53.928;18.522;2022-07-01T04:16:06;100154.00;;;22.50
22322;BMP180;11328;53.928;18.522;2022-07-01T04:18:33;100170.00;;;22.80
22322;BMP180;11328;53.928;18.522;2022-07-01T04:21:00;100161.00;;;22.80
22322;BMP180;11328;53.928;18.522;2022-07-01T04:23:46;100161.00;;;23.00
22322;BMP180;11328;53.928;18.522;2022-07-01T04:26:13;100150.00;;;23.20
22322;BMP180;11328;53.928;18.522;2022-07-01T04:29:00;100167.00;;;23.30
22322;BMP180;11328;53.928;18.522;2022-07-01T04:31:27;100157.00;;;23.40
22322;BMP180;11328;53.928;18.522;2022-07-01T04:33:54;100152.00;;;23.50
22322;BMP180;11328;53.928;18.522;2022-07-01T04:36:21;100165.00;;;23.60
22322;BMP180;11328;53.928;18.522;2022-07-01T04:38:48;100167.00;;;23.70
22322;BMP180;11328;53.928;18.522;2022-07-01T04:41:16;100157.00;;;23.80
22322;BMP180;11328;53.928;18.522;2022-07-01T04:44:02;100155.00;;;24.00
22322;BMP180;11328;53.928;18.522;2022-07-01T04:46:29;100161.00;;;24.00
22322;BMP180;11328;53.928;18.522;2022-07-01T04:48:56;100160.00;;;24.00
22322;BMP180;11328;53.928;18.522;2022-07-01T04:51:24;100167.00;;;24.10
22322;BMP180;11328;53.928;18.522;2022-07-01T04:53:51;100167.00;;;24.30
22322;BMP180;11328;53.928;18.522;2022-07-01T04:56:18;100155.00;;;24.40
22322;BMP180;11328;53.928;18.522;2022-07-01T04:58:45;100164.00;;;24.50
22322;BMP180;11328;53.928;18.522;2022-07-01T05:01:12;100168.00;;;24.80
22322;BMP180;11328;53.928;18.522;2022-07-01T05:03:40;100171.00;;;24.90
22322;BMP180;11328;53.928;18.522;2022-07-01T05:06:07;100169.00;;;25.00
22322;BMP180;11328;53.928;18.522;2022-07-01T05:08:34;100155.00;;;25.20
22322;BMP180;11328;53.928;18.522;2022-07-01T05:11:01;100175.00;;;25.40
22322;BMP180;11328;53.928;18.522;2022-07-01T05:13:27;100174.00;;;25.60
22322;BMP180;11328;53.928;18.522;2022-07-01T05:15:54;100180.00;;;25.70
22322;BMP180;11328;53.928;18.522;2022-07-01T05:18:21;100186.00;;;25.80
22322;BMP180;11328;53.928;18.522;2022-07-01T05:21:07;100177.00;;;26.00
22322;BMP180;11328;53.928;18.522;2022-07-01T05:23:52;100180.00;;;26.20
22322;BMP180;11328;53.928;18.522;2022-07-01T05:26:20;100182.00;;;26.40
22322;BMP180;11328;53.928;18.522;2022-07-01T05:28:47;100181.00;;;26.70
22322;BMP180;11328;53.928;18.522;2022-07-01T05:31:14;100174.00;;;27.00
22322;BMP180;11328;53.928;18.522;2022-07-01T05:33:42;100164.00;;;27.20
22322;BMP180;11328;53.928;18.522;2022-07-01T05:36:10;100180.00;;;27.40
22322;BMP180;11328;53.928;18.522;2022-07-01T05:38:37;100172.00;;;27.50
22322;BMP180;11328;53.928;18.522;2022-07-01T05:41:05;100173.00;;;27.70
22322;BMP180;11328;53.928;18.522;2022-07-01T05:43:33;100183.00;;;27.90
22322;BMP180;11328;53.928;18.522;2022-07-01T05:46:01;100198.00;;;28.00
22322;BMP180;11328;53.928;18.522;2022-07-01T05:48:28;100195.00;;;28.10
22322;BMP180;11328;53.928;18.522;2022-07-01T05:50:55;100197.00;;;28.10
22322;BMP180;11328;53.928;18.522;2022-07-01T05:53:22;100201.00;;;28.20
22322;BMP180;11328;53.928;18.522;2022-07-01T05:55:49;100203.00;;;28.40
22322;BMP180;11328;53.928;18.522;2022-07-01T05:58:17;100206.00;;;28.50
22322;BMP180;11328;53.928;18.522;2022-07-01T06:00:44;100199.00;;;28.70
22322;BMP180;11328;53.928;18.522;2022-07-01T06:03:13;100191.00;;;28.80
22322;BMP180;11328;53.928;18.522;2022-07-01T06:05:41;100194.00;;;28.70
22322;BMP180;11328;53.928;18.522;2022-07-01T06:08:09;100200.00;;;28.80
22322;BMP180;11328;53.928;18.522;2022-07-01T06:10:36;100193.00;;;29.00
22322;BMP180;11328;53.928;18.522;2022-07-01T06:13:04;100194.00;;;29.20
22322;BMP180;11328;53.928;18.522;2022-07-01T06:15:32;100189.00;;;29.40
22322;BMP180;11328;53.928;18.522;2022-07-01T06:18:00;100198.00;;;29.60
22322;BMP180;11328;53.928;18.522;2022-07-01T06:20:27;100198.00;;;29.80
22322;BMP180;11328;53.928;18.522;2022-07-01T06:22:54;100197.00;;;29.90
22322;BMP180;11328;53.928;18.522;2022-07-01T06:25:21;100186.00;;;30.10
22322;BMP180;11328;53.928;18.522;2022-07-01T06:27:48;100193.00;;;30.40
22322;BMP180;11328;53.928;18.522;2022-07-01T06:30:15;100190.00;;;30.50
22322;BMP180;11328;53.928;18.522;2022-07-01T06:32:42;100205.00;;;30.30
22322;BMP180;11328;53.928;18.522;2022-07-01T06:35:09;100191.00;;;30.10
22322;BMP180;11328;53.928;18.522;2022-07-01T06:37:37;100185.00;;;30.50
22322;BMP180;11328;53.928;18.522;2022-07-01T06:40:10;100167.00;;;30.50
22322;BMP180;11328;53.928;18.522;2022-07-01T06:42:37;100194.00;;;30.60
22322;BMP180;11328;53.928;18.522;2022-07-01T06:45:05;100197.00;;;30.70
22322;BMP180;11328;53.928;18.522;2022-07-01T06:47:32;100180.00;;;30.80
22322;BMP180;11328;53.928;18.522;2022-07-01T06:49:59;100191.00;;;30.90
22322;BMP180;11328;53.928;18.522;2022-07-01T06:52:30;100190.00;;;30.90
22322;BMP180;11328;53.928;18.522;2022-07-01T06:54:57;100198.00;;;30.80
22322;BMP180;11328;53.928;18.522;2022-07-01T06:57:24;100198.00;;;30.50
22322;BMP180;11328;53.928;18.522;2022-07-01T06:59:51;100185.00;;;30.50
22322;BMP180;11328;53.928;18.522;2022-07-01T07:02:18;100194.00;;;30.70
22322;BMP180;11328;53.928;18.522;2022-07-01T07:04:45;100189.00;;;30.70
22322;BMP180;11328;53.928;18.522;2022-07-01T07:07:26;100192.00;;;30.70
22322;BMP180;11328;53.928;18.522;2022-07-01T07:09:53;100195.00;;;30.70
22322;BMP180;11328;53.928;18.522;2022-07-01T07:12:20;100181.00;;;30.40
22322;BMP180;11328;53.928;18.522;2022-07-01T07:14:47;100191.00;;;30.50
22322;BMP180;11328;53.928;18.522;2022-07-01T07:17:14;100192.00;;;30.60
22322;BMP180;11328;53.928;18.522;2022-07-01T07:19:41;100185.00;;;30.90
22322;BMP180;11328;53.928;18.522;2022-07-01T07:33:36;100188.00;;;31.40
22322;BMP180;11328;53.928;18.522;2022-07-01T07:36:03;100195.00;;;31.10
22322;BMP180;11328;53.928;18.522;2022-07-01T07:38:30;100199.00;;;31.30
22322;BMP180;11328;53.928;18.522;2022-07-01T07:40:57;100199.00;;;31.40
22322;BMP180;11328;53.928;18.522;2022-07-01T07:43:31;100196.00;;;31.40
22322;BMP180;11328;53.928;18.522;2022-07-01T07:45:58;100184.00;;;31.40
22322;BMP180;11328;53.928;18.522;2022-07-01T07:48:25;100197.00;;;31.50
22322;BMP180;11328;53.928;18.522;2022-07-01T07:50:52;100196.00;;;31.60
22322;BMP180;11328;53.928;18.522;2022-07-01T07:53:19;100206.00;;;31.80
22322;BMP180;11328;53.928;18.522;2022-07-01T07:55:46;100204.00;;;31.90
22322;BMP180;11328;53.928;18.522;2022-07-01T07:58:13;100200.00;;;32.00
22322;BMP180;11328;53.928;18.522;2022-07-01T08:00:40;100208.00;;;31.60
22322;BMP180;11328;53.928;18.522;2022-07-01T08:03:07;100203.00;;;31.90
22322;BMP180;11328;53.928;18.522;2022-07-01T08:05:35;100204.00;;;31.70
22322;BMP180;11328;53.928;18.522;2022-07-01T08:08:02;100204.00;;;31.50
22322;BMP180;11328;53.928;18.522;2022-07-01T08:10:29;100209.00;;;31.60
22322;BMP180;11328;53.928;18.522;2022-07-01T08:12:56;100209.00;;;31.80
22322;BMP180;11328;53.928;18.522;2022-07-01T08:15:24;100205.00;;;31.90
22322;BMP180;11328;53.928;18.522;2022-07-01T08:17:51;100205.00;;;32.10
22322;BMP180;11328;53.928;18.522;2022-07-01T08:20:18;100200.00;;;32.10
22322;BMP180;11328;53.928;18.522;2022-07-01T08:22:49;100196.00;;;32.00
22322;BMP180;11328;53.928;18.522;2022-07-01T08:25:16;100200.00;;;32.10
22322;BMP180;11328;53.928;18.522;2022-07-01T08:27:43;100210.00;;;32.30
22322;BMP180;11328;53.928;18.522;2022-07-01T08:30:11;100198.00;;;32.40
22322;BMP180;11328;53.928;18.522;2022-07-01T08:32:38;100223.00;;;32.30
22322;BMP180;11328;53.928;18.522;2022-07-01T08:35:06;100224.00;;;32.00
22322;BMP180;11328;53.928;18.522;2022-07-01T08:37:33;100217.00;;;31.80
22322;BMP180;11328;53.928;18.522;2022-07-01T08:40:00;100234.00;;;31.60
22322;BMP180;11328;53.928;18.522;2022-07-01T08:42:27;100236.00;;;31.30
22322;BMP180;11328;53.928;18.522;2022-07-01T08:44:54;100231.00;;;30.70
22322;BMP180;11328;53.928;18.522;2022-07-01T08:47:22;100237.00;;;30.80
22322;BMP180;11328;53.928;18.522;2022-07-01T08:49:49;100236.00;;;30.80
22322;BMP180;11328;53.928;18.522;2022-07-01T08:52:16;100236.00;;;30.90
22322;BMP180;11328;53.928;18.522;2022-07-01T08:54:43;100232.00;;;30.60
22322;BMP180;11328;53.928;18.522;2022-07-01T08:57:10;100220.00;;;30.60
22322;BMP180;11328;53.928;18.522;2022-07-01T08:59:37;100215.00;;;30.30
22322;BMP180;11328;53.928;18.522;2022-07-01T09:02:05;100218.00;;;30.00
22322;BMP180;11328;53.928;18.522;2022-07-01T09:04:33;100228.00;;;29.60
22322;BMP180;11328;53.928;18.522;2022-07-01T09:07:06;100219.00;;;29.50
22322;BMP180;11328;53.928;18.522;2022-07-01T09:09:36;100224.00;;;29.50
22322;BMP180;11328;53.928;18.522;2022-07-01T09:12:05;100212.00;;;29.60
22322;BMP180;11328;53.928;18.522;2022-07-01T09:14:34;100207.00;;;29.40
22322;BMP180;11328;53.928;18.522;2022-07-01T09:17:06;100209.00;;;29.20
22322;BMP180;11328;53.928;18.522;2022-07-01T09:19:36;100212.00;;;29.00
22322;BMP180;11328;53.928;18.522;2022-07-01T09:22:12;100210.00;;;28.80
22322;BMP180;11328;53.928;18.522;2022-07-01T09:24:42;100197.00;;;28.70
22322;BMP180;11328;53.928;18.522;2022-07-01T09:27:12;100208.00;;;29.20
22322;BMP180;11328;53.928;18.522;2022-07-01T09:29:49;100189.00;;;29.50
22322;BMP180;11328;53.928;18.522;2022-07-01T09:32:19;100197.00;;;29.60
22322;BMP180;11328;53.928;18.522;2022-07-01T09:34:52;100199.00;;;29.80
22322;BMP180;11328;53.928;18.522;2022-07-01T09:37:24;100208.00;;;29.60
22322;BMP180;11328;53.928;18.522;2022-07-01T09:39:57;100205.00;;;29.40
22322;BMP180;11328;53.928;18.522;2022-07-01T09:42:26;100206.00;;;29.90
22322;BMP180;11328;53.928;18.522;2022-07-01T09:45:03;100206.00;;;29.80
22322;BMP180;11328;53.928;18.522;2022-07-01T09:47:39;100211.00;;;29.90
22322;BMP180;11328;53.928;18.522;2022-07-01T09:50:07;100206.00;;;29.80
22322;BMP180;11328;53.928;18.522;2022-07-01T09:52:36;100175.00;;;30.30
22322;BMP180;11328;53.928;18.522;2022-07-01T09:55:06;100197.00;;;30.80
22322;BMP180;11328;53.928;18.522;2022-07-01T09:57:34;100205.00;;;31.30
22322;BMP180;11328;53.928;18.522;2022-07-01T10:00:04;100201.00;;;30.90
22322;BMP180;11328;53.928;18.522;2022-07-01T10:02:35;100200.00;;;30.50
22322;BMP180;11328;53.928;18.522;2022-07-01T10:05:09;100199.00;;;30.70
22322;BMP180;11328;53.928;18.522;2022-07-01T10:13:46;100200.00;;;31.70
22322;BMP180;11328;53.928;18.522;2022-07-01T10:16:19;100201.00;;;31.90
22322;BMP180;11328;53.928;18.522;2022-07-01T10:18:47;100187.00;;;31.90
22322;BMP180;11328;53.928;18.522;2022-07-01T10:21:31;100191.00;;;32.00
22322;BMP180;11328;53.928;18.522;2022-07-01T10:24:16;100197.00;;;31.40
22322;BMP180;11328;53.928;18.522;2022-07-01T10:26:44;100204.00;;;30.40
22322;BMP180;11328;53.928;18.522;2022-07-01T10:29:34;100196.00;;;30.30
22322;BMP180;11328;53.928;18.522;2022-07-01T10:32:25;100204.00;;;30.60
22322;BMP180;11328;53.928;18.522;2022-07-01T10:35:16;100210.00;;;30.30
22322;BMP180;11328;53.928;18.522;2022-07-01T10:38:01;100213.00;;;30.00
22322;BMP180;11328;53.928;18.522;2022-07-01T10:40:46;100203.00;;;30.20
22322;BMP180;11328;53.928;18.522;2022-07-01T10:43:16;100188.00;;;30.10
22322;BMP180;11328;53.928;18.522;2022-07-01T10:45:57;100185.00;;;30.20
22322;BMP180;11328;53.928;18.522;2022-07-01T10:48:25;100181.00;;;30.60
22322;BMP180;11328;53.928;18.522;2022-07-01T10:50:53;100172.00;;;30.50
22322;BMP180;11328;53.928;18.522;2022-07-01T10:53:20;100172.00;;;30.50
22322;BMP180;11328;53.928;18.522;2022-07-01T10:55:52;100160.00;;;30.70
22322;BMP180;11328;53.928;18.522;2022-07-01T10:58:38;100165.00;;;30.70
22322;BMP180;11328;53.928;18.522;2022-07-01T11:01:05;100171.00;;;31.10
22322;BMP180;11328;53.928;18.522;2022-07-01T11:03:37;100171.00;;;31.10
22322;BMP180;11328;53.928;18.522;2022-07-01T11:06:07;100181.00;;;31.00
22322;BMP180;11328;53.928;18.522;2022-07-01T11:08:34;100172.00;;;30.90
22322;BMP180;11328;53.928;18.522;2022-07-01T11:11:02;100184.00;;;31.00
22322;BMP180;11328;53.928;18.522;2022-07-01T11:13:35;100169.00;;;30.80
22322;BMP180;11328;53.928;18.522;2022-07-01T11:16:04;100169.00;;;31.20
22322;BMP180;11328;53.928;18.522;2022-07-01T11:18:34;100165.00;;;31.40
22322;BMP180;11328;53.928;18.522;2022-07-01T11:21:07;100165.00;;;31.70
22322;BMP180;11328;53.928;18.522;2022-07-01T11:23:35;100114.00;;;31.80
22322;BMP180;11328;53.928;18.522;2022-07-01T11:26:20;100140.00;;;31.80
22322;BMP180;11328;53.928;18.522;2022-07-01T11:28:47;100153.00;;;31.50
22322;BMP180;11328;53.928;18.522;2022-07-01T11:31:14;100149.00;;;31.70
22322;BMP180;11328;53.928;18.522;2022-07-01T11:33:49;100148.00;;;31.60
22322;BMP180;11328;53.928;18.522;2022-07-01T11:36:16;100151.00;;;31.80
22322;BMP180;11328;53.928;18.522;2022-07-01T11:39:01;100138.00;;;31.90
22322;BMP180;11328;53.928;18.522;2022-07-01T11:41:51;100141.00;;;32.10
22322;BMP180;11328;53.928;18.522;2022-07-01T11:44:33;100139.00;;;32.00
22322;BMP180;11328;53.928;18.522;2022-07-01T11:47:03;100141.00;;;31.80
22322;BMP180;11328;53.928;18.522;2022-07-01T11:49:31;100141.00;;;31.50
22322;BMP180;11328;53.928;18.522;2022-07-01T11:52:02;100143.00;;;31.40
22322;BMP180;11328;53.928;18.522;2022-07-01T11:54:29;100134.00;;;31.60
22322;BMP180;11328;53.928;18.522;2022-07-01T11:57:17;100128.00;;;31.90
22322;BMP180;11328;53.928;18.522;2022-07-01T11:59:46;100122.00;;;32.10
22322;BMP180;11328;53.928;18.522;2022-07-01T12:02:16;100123.00;;;32.50
22322;BMP180;11328;53.928;18.522;2022-07-01T12:04:45;100122.00;;;32.70
22322;BMP180;11328;53.928;18.522;2022-07-01T12:07:14;100116.00;;;32.60
22322;BMP180;11328;53.928;18.522;2022-07-01T12:09:42;100111.00;;;32.30
22322;BMP180;11328;53.928;18.522;2022-07-01T12:12:22;100120.00;;;32.10
22322;BMP180;11328;53.928;18.522;2022-07-01T12:14:56;100100.00;;;32.20
22322;BMP180;11328;53.928;18.522;2022-07-01T12:17:26;100117.00;;;32.40
22322;BMP180;11328;53.928;18.522;2022-07-01T12:19:54;100098.00;;;32.40
22322;BMP180;11328;53.928;18.522;2022-07-01T12:22:25;100094.00;;;32.20
22322;BMP180;11328;53.928;18.522;2022-07-01T12:25:13;100095.00;;;32.00
22322;BMP180;11328;53.928;18.522;2022-07-01T12:27:42;100092.00;;;32.10
22322;BMP180;11328;53.928;18.522;2022-07-01T12:30:11;100082.00;;;31.80
22322;BMP180;11328;53.928;18.522;2022-07-01T12:32:49;100085.00;;;31.60
22322;BMP180;11328;53.928;18.522;2022-07-01T12:35:24;100089.00;;;31.70
22322;BMP180;11328;53.928;18.522;2022-07-01T12:38:04;100081.00;;;31.70
22322;BMP180;11328;53.928;18.522;2022-07-01T12:40:34;100084.00;;;31.70
22322;BMP180;11328;53.928;18.522;2022-07-01T12:43:01;100059.00;;;32.00
22322;BMP180;11328;53.928;18.522;2022-07-01T12:45:40;100085.00;;;32.10
22322;BMP180;11328;53.928;18.522;2022-07-01T12:48:07;100080.00;;;31.90
22322;BMP180;11328;53.928;18.522;2022-07-01T12:50:34;100076.00;;;32.10
22322;BMP180;11328;53.928;18.522;2022-07-01T12:53:11;100066.00;;;32.40
22322;BMP180;11328;53.928;18.522;2022-07-01T12:55:55;100064.00;;;32.20
22322;BMP180;11328;53.928;18.522;2022-07-01T12:58:26;100064.00;;;32.20
22322;BMP180;11328;53.928;18.522;2022-07-01T13:00:58;100058.00;;;32.30
22322;BMP180;11328;53.928;18.522;2022-07-01T13:03:27;100058.00;;;32.50
22322;BMP180;11328;53.928;18.522;2022-07-01T13:05:56;100051.00;;;32.50
22322;BMP180;11328;53.928;18.522;2022-07-01T13:08:23;100048.00;;;32.20
22322;BMP180;11328;53.928;18.522;2022-07-01T13:10:50;100044.00;;;32.60
22322;BMP180;11328;53.928;18.522;2022-07-01T13:13:18;100036.00;;;32.50
22322;BMP180;11328;53.928;18.522;2022-07-01T13:15:46;100040.00;;;32.40
22322;BMP180;11328;53.928;18.522;2022-07-01T13:18:13;100039.00;;;32.40
22322;BMP180;11328;53.928;18.522;2022-07-01T13:20:44;100046.00;;;32.20
22322;BMP180;11328;53.928;18.522;2022-07-01T13:23:13;100043.00;;;32.20
22322;BMP180;11328;53.928;18.522;2022-07-01T13:25:41;100034.00;;;32.00
22322;BMP180;11328;53.928;18.522;2022-07-01T13:28:08;100034.00;;;32.20
22322;BMP180;11328;53.928;18.522;2022-07-01T13:30:35;100026.00;;;32.50
22322;BMP180;11328;53.928;18.522;2022-07-01T13:33:03;100013.00;;;32.60
22322;BMP180;11328;53.928;18.522;2022-07-01T13:35:30;100025.00;;;32.80
22322;BMP180;11328;53.928;18.522;2022-07-01T13:37:57;100009.00;;;32.70
22322;BMP180;11328;53.928;18.522;2022-07-01T13:40:24;100007.00;;;32.40
22322;BMP180;11328;53.928;18.522;2022-07-01T13:42:51;99983.00;;;32.00
22322;BMP180;11328;53.928;18.522;2022-07-01T13:45:18;99986.00;;;31.90
22322;BMP180;11328;53.928;18.522;2022-07-01T13:47:45;99990.00;;;32.00
22322;BMP180;11328;53.928;18.522;2022-07-01T13:50:12;99989.00;;;32.00
22322;BMP180;11328;53.928;18.522;2022-07-01T13:52:40;99974.00;;;32.10
22322;BMP180;11328;53.928;18.522;2022-07-01T13:55:13;99997.00;;;32.00
22322;BMP180;11328;53.928;18.522;2022-07-01T13:57:40;99997.00;;;32.10
22322;BMP180;11328;53.928;18.522;2022-07-01T14:00:08;100002.00;;;32.00
22322;BMP180;11328;53.928;18.522;2022-07-01T14:02:35;100006.00;;;31.90
22322;BMP180;11328;53.928;18.522;2022-07-01T14:05:02;100009.00;;;31.80
22322;BMP180;11328;53.928;18.522;2022-07-01T14:07:31;99998.00;;;32.00
22322;BMP180;11328;53.928;18.522;2022-07-01T14:09:58;100003.00;;;32.00
22322;BMP180;11328;53.928;18.522;2022-07-01T14:12:25;99999.00;;;32.20
22322;BMP180;11328;53.928;18.522;2022-07-01T14:14:56;100006.00;;;32.00